createdAt,value
2023-04-30T00:00:08.614Z,22.65
2023-04-30T00:02:37.605Z,22.88
2023-04-30T00:05:05.041Z,21.27
2023-04-30T00:07:32.313Z,22.17
2023-04-30T00:09:59.332Z,24.17
2023-04-30T00:12:26.382Z,21.63
2023-04-30T00:14:53.607Z,21.15
2023-04-30T00:17:20.860Z,20.85
2023-04-30T00:19:47.794Z,22.23
2023-04-30T00:22:14.996Z,20.85
2023-04-30T00:24:41.986Z,23.38
2023-04-30T00:27:09.025Z,20.70
2023-04-30T00:29:36.053Z,21.48
2023-04-30T00:32:03.165Z,23.73
2023-04-30T00:34:30.274Z,22.35
2023-04-30T00:36:57.317Z,23.15
2023-04-30T00:39:24.361Z,21.77
2023-04-30T00:41:51.385Z,20.15
2023-04-30T00:44:18.296Z,19.83
2023-04-30T00:46:45.373Z,15.60
2023-04-30T00:49:12.355Z,21.02
2023-04-30T00:51:42.107Z,19.33
2023-04-30T00:54:09.479Z,21.23
2023-04-30T00:56:36.518Z,22.05
2023-04-30T00:59:03.809Z,23.17
2023-04-30T01:01:31.873Z,19.35
2023-04-30T01:03:59.385Z,20.27
2023-04-30T01:06:27.080Z,20.98
2023-04-30T01:08:54.456Z,20.55
2023-04-30T01:11:56.547Z,20.63
2023-04-30T01:15:08.583Z,21.48
2023-04-30T01:17:35.554Z,20.35
2023-04-30T01:20:03.298Z,21.77
2023-04-30T01:22:42.694Z,16.52
2023-04-30T01:25:42.362Z,19.98
2023-04-30T01:28:15.765Z,18.30
2023-04-30T01:30:46.550Z,22.45
2023-04-30T01:33:14.281Z,20.30
2023-04-30T01:36:00.330Z,19.80
2023-04-30T01:38:55.680Z,23.00
2023-04-30T01:41:37.286Z,20.98
2023-04-30T01:44:22.653Z,15.13
2023-04-30T01:47:02.904Z,22.15
2023-04-30T01:49:56.210Z,20.05
2023-04-30T01:52:28.890Z,16.15
2023-04-30T01:55:05.440Z,18.40
2023-04-30T01:57:56.865Z,17.00
2023-04-30T02:00:24.520Z,20.50
2023-04-30T02:02:51.668Z,24.27
2023-04-30T02:05:18.928Z,18.15
2023-04-30T02:07:49.489Z,21.05
2023-04-30T02:10:18.736Z,24.77
2023-04-30T02:12:46.014Z,23.55
2023-04-30T02:15:13.462Z,22.60
2023-04-30T02:17:41.562Z,14.93
2023-04-30T02:20:09.389Z,20.00
2023-04-30T02:22:36.739Z,22.77
2023-04-30T02:25:04.378Z,22.73
2023-04-30T02:27:32.924Z,21.92
2023-04-30T02:30:00.728Z,21.38
2023-04-30T02:32:27.835Z,20.45
2023-04-30T02:34:55.037Z,22.95
2023-04-30T02:37:22.717Z,23.98
2023-04-30T02:39:50.191Z,25.77
2023-04-30T02:42:17.288Z,12.98
2023-04-30T02:44:44.426Z,14.02
2023-04-30T02:47:11.527Z,20.90
2023-04-30T02:49:38.916Z,15.05
2023-04-30T02:52:07.217Z,20.70
2023-04-30T02:54:34.164Z,19.17
2023-04-30T02:57:01.517Z,21.35
2023-04-30T02:59:28.618Z,22.63
2023-04-30T03:01:55.811Z,20.38
2023-04-30T03:04:22.940Z,18.75
2023-04-30T03:06:49.887Z,21.00
2023-04-30T03:09:16.970Z,22.80
2023-04-30T03:11:43.970Z,15.07
2023-04-30T03:14:11.035Z,18.08
2023-04-30T03:16:38.351Z,14.55
2023-04-30T03:19:05.488Z,19.65
2023-04-30T03:21:32.743Z,14.68
2023-04-30T03:23:59.813Z,15.88
2023-04-30T03:26:27.411Z,16.55
2023-04-30T03:28:55.813Z,17.60
2023-04-30T03:31:23.679Z,18.65
2023-04-30T03:33:51.103Z,21.42
2023-04-30T03:36:18.156Z,21.75
2023-04-30T03:38:45.250Z,18.83
2023-04-30T03:41:12.316Z,20.55
2023-04-30T03:43:39.387Z,16.70
2023-04-30T03:46:06.558Z,16.20
2023-04-30T03:48:33.738Z,15.55
2023-04-30T03:51:00.688Z,13.50
2023-04-30T03:53:27.856Z,14.38
2023-04-30T03:55:55.319Z,18.98
2023-04-30T03:58:22.708Z,19.35
2023-04-30T04:00:50.016Z,16.58
2023-04-30T04:03:17.228Z,15.27
2023-04-30T04:05:44.429Z,20.52
2023-04-30T04:08:12.297Z,18.20
2023-04-30T04:10:40.309Z,21.30
2023-04-30T04:13:08.824Z,15.80
2023-04-30T04:15:36.169Z,16.15
2023-04-30T04:18:03.840Z,15.90
2023-04-30T04:20:31.961Z,18.33
2023-04-30T04:22:59.018Z,16.10
2023-04-30T04:25:26.125Z,14.52
2023-04-30T04:27:53.831Z,15.50
2023-04-30T04:30:20.869Z,16.08
2023-04-30T04:32:51.951Z,15.07
2023-04-30T04:35:19.403Z,16.35
2023-04-30T04:37:46.468Z,22.45
2023-04-30T04:40:14.211Z,16.17
2023-04-30T04:42:42.131Z,17.92
2023-04-30T04:45:10.118Z,13.27
2023-04-30T04:47:38.457Z,14.07
2023-04-30T04:50:06.840Z,14.40
2023-04-30T04:52:33.870Z,13.52
2023-04-30T04:55:01.048Z,24.23
2023-04-30T04:57:28.088Z,15.75
2023-04-30T04:59:55.502Z,16.17
2023-04-30T05:02:23.695Z,13.15
2023-04-30T05:04:51.582Z,21.90
2023-04-30T05:07:19.187Z,19.25
2023-04-30T05:09:47.238Z,15.85
2023-04-30T05:12:15.195Z,18.45
2023-04-30T05:14:43.041Z,13.48
2023-04-30T05:17:10.168Z,17.77
2023-04-30T05:19:37.177Z,13.48
2023-04-30T05:22:04.263Z,14.25
2023-04-30T05:24:31.384Z,18.00
2023-04-30T05:26:58.397Z,12.27
2023-04-30T05:29:25.509Z,13.02
2023-04-30T05:31:52.802Z,14.77
2023-04-30T05:34:19.981Z,13.52
2023-04-30T05:36:47.085Z,13.27
2023-04-30T05:39:14.404Z,14.52
2023-04-30T05:41:41.333Z,14.43
2023-04-30T05:44:08.384Z,19.92
2023-04-30T05:46:35.622Z,17.73
2023-04-30T05:49:02.944Z,16.15
2023-04-30T05:51:29.999Z,16.20
2023-04-30T05:53:57.641Z,24.17
2023-04-30T05:56:25.329Z,14.63
2023-04-30T05:58:52.760Z,12.43
2023-04-30T06:01:21.224Z,15.95
2023-04-30T06:03:48.294Z,15.30
2023-04-30T06:06:15.377Z,24.23
2023-04-30T06:08:45.373Z,19.08
2023-04-30T06:11:13.596Z,17.85
2023-04-30T06:13:41.034Z,17.88
2023-04-30T06:16:08.700Z,23.90
2023-04-30T06:18:36.048Z,20.17
2023-04-30T06:21:03.192Z,33.17
2023-04-30T06:23:30.339Z,25.15
2023-04-30T06:25:57.501Z,42.95
2023-04-30T06:28:24.611Z,47.55
2023-04-30T06:30:52.302Z,37.08
2023-04-30T06:33:19.301Z,38.55
2023-04-30T06:35:46.553Z,67.85
2023-04-30T06:38:15.333Z,45.58
2023-04-30T06:40:42.434Z,40.08
2023-04-30T06:43:09.501Z,39.53
2023-04-30T06:45:36.621Z,44.15
2023-04-30T06:48:03.860Z,68.82
2023-04-30T06:50:30.936Z,43.60
2023-04-30T06:52:57.980Z,39.55
2023-04-30T06:55:25.182Z,69.57
2023-04-30T06:57:52.572Z,48.28
2023-04-30T07:00:19.613Z,39.45
2023-04-30T07:02:51.291Z,71.20
2023-04-30T07:05:19.069Z,44.42
2023-04-30T07:07:46.626Z,60.17
2023-04-30T07:10:24.630Z,66.97
2023-04-30T07:12:54.378Z,47.22
2023-04-30T07:15:21.642Z,66.38
2023-04-30T07:17:48.699Z,69.70
2023-04-30T07:20:16.236Z,54.00
2023-04-30T07:22:46.568Z,69.50
2023-04-30T07:25:13.968Z,48.33
2023-04-30T07:27:41.459Z,63.00
2023-04-30T07:30:11.914Z,60.35
2023-04-30T07:32:41.196Z,69.95
2023-04-30T07:35:08.770Z,63.22
2023-04-30T07:37:36.135Z,59.15
2023-04-30T07:40:04.360Z,61.08
2023-04-30T07:42:31.449Z,55.80
2023-04-30T07:44:58.439Z,56.90
2023-04-30T07:47:25.934Z,56.65
2023-04-30T07:49:53.300Z,61.80
2023-04-30T07:52:20.663Z,61.10
2023-04-30T07:54:47.614Z,59.45
2023-04-30T07:57:14.629Z,58.10
2023-04-30T07:59:41.584Z,57.17
2023-04-30T08:02:09.776Z,58.80
2023-04-30T08:04:36.918Z,54.47
2023-04-30T08:07:04.710Z,44.75
2023-04-30T08:09:31.741Z,40.70
2023-04-30T08:11:58.845Z,42.10
2023-04-30T08:14:25.898Z,37.03
2023-04-30T08:16:52.992Z,40.53
2023-04-30T08:19:21.318Z,41.63
2023-04-30T08:21:48.718Z,43.72
2023-04-30T08:24:15.627Z,45.70
2023-04-30T08:26:42.823Z,37.28
2023-04-30T08:29:09.897Z,34.63
2023-04-30T08:31:37.404Z,35.45
2023-04-30T08:34:04.456Z,34.55
2023-04-30T08:36:31.630Z,35.00
2023-04-30T08:38:58.587Z,38.45
2023-04-30T08:41:33.754Z,36.53
2023-04-30T08:44:05.726Z,31.63
2023-04-30T08:46:36.153Z,33.58
2023-04-30T08:49:03.256Z,30.80
2023-04-30T08:51:33.832Z,32.40
2023-04-30T08:54:00.886Z,31.10
2023-04-30T08:56:29.594Z,32.58
2023-04-30T08:58:56.653Z,29.77
2023-04-30T09:01:24.689Z,27.75
2023-04-30T09:03:51.810Z,27.88
2023-04-30T09:06:18.947Z,25.95
2023-04-30T09:08:48.263Z,27.13
2023-04-30T09:11:24.636Z,27.45
2023-04-30T09:13:53.434Z,26.98
2023-04-30T09:16:21.931Z,26.42
2023-04-30T09:18:49.669Z,27.83
2023-04-30T09:21:16.952Z,25.25
2023-04-30T09:23:58.188Z,23.48
2023-04-30T09:26:37.540Z,27.60
2023-04-30T09:29:08.945Z,21.42
2023-04-30T09:31:37.268Z,25.60
2023-04-30T09:34:05.061Z,23.25
2023-04-30T09:36:32.865Z,23.50
2023-04-30T09:39:14.162Z,21.88
2023-04-30T09:41:43.041Z,21.30
2023-04-30T09:44:28.055Z,21.25
2023-04-30T09:46:57.690Z,21.48
2023-04-30T09:49:26.116Z,22.80
2023-04-30T09:52:01.086Z,22.60
2023-04-30T09:54:32.385Z,19.70
2023-04-30T09:57:02.390Z,20.13
2023-04-30T09:59:35.494Z,22.02
2023-04-30T10:02:04.901Z,20.08
2023-04-30T10:04:39.382Z,20.05
2023-04-30T10:07:10.829Z,18.65
2023-04-30T10:09:45.230Z,16.13
2023-04-30T10:12:16.051Z,16.98
2023-04-30T10:14:54.087Z,16.85
2023-04-30T10:17:27.096Z,17.77
2023-04-30T10:19:58.630Z,18.70
2023-04-30T10:22:25.950Z,16.48
2023-04-30T10:24:53.894Z,24.45
2023-04-30T10:27:21.355Z,19.17
2023-04-30T10:29:49.128Z,18.85
2023-04-30T10:32:16.850Z,18.42
2023-04-30T10:35:07.274Z,16.88
2023-04-30T10:37:48.664Z,13.70
2023-04-30T10:40:15.872Z,13.32
2023-04-30T10:42:47.358Z,14.60
2023-04-30T10:45:16.480Z,14.63
2023-04-30T10:47:47.405Z,16.67
2023-04-30T10:50:14.583Z,14.00
2023-04-30T10:52:41.614Z,13.23
2023-04-30T10:55:09.963Z,15.10
2023-04-30T10:57:45.491Z,14.63
2023-04-30T11:00:14.496Z,16.88
2023-04-30T11:02:44.060Z,13.18
2023-04-30T11:05:18.644Z,14.40
2023-04-30T11:07:49.973Z,14.55
2023-04-30T11:10:21.179Z,15.95
2023-04-30T11:12:49.875Z,15.00
2023-04-30T11:15:20.055Z,13.10
2023-04-30T11:17:49.662Z,14.73
2023-04-30T11:20:21.668Z,12.68
2023-04-30T11:22:48.914Z,13.93
2023-04-30T11:25:23.331Z,12.65
2023-04-30T11:27:51.118Z,13.30
2023-04-30T11:30:18.861Z,11.20
2023-04-30T11:32:47.927Z,12.20
2023-04-30T11:35:18.916Z,11.88
2023-04-30T11:37:47.721Z,12.75
2023-04-30T11:40:15.218Z,12.55
2023-04-30T11:42:47.082Z,11.98
2023-04-30T11:45:23.469Z,12.23
2023-04-30T11:47:54.016Z,9.55
2023-04-30T11:50:28.885Z,9.57
2023-04-30T11:52:58.333Z,10.25
2023-04-30T11:55:27.832Z,11.25
2023-04-30T11:57:58.769Z,11.45
2023-04-30T12:00:29.518Z,11.40
2023-04-30T12:02:58.049Z,11.65
2023-04-30T12:05:28.038Z,11.38
2023-04-30T12:07:57.079Z,9.98
2023-04-30T12:10:25.851Z,10.05
2023-04-30T12:12:54.780Z,11.95
2023-04-30T12:15:27.344Z,11.10
2023-04-30T12:17:56.431Z,11.45
2023-04-30T12:20:29.045Z,11.48
2023-04-30T12:22:56.427Z,12.60
2023-04-30T12:25:23.721Z,12.52
2023-04-30T12:27:52.859Z,13.10
2023-04-30T12:30:27.028Z,11.52
2023-04-30T12:32:57.384Z,9.02
2023-04-30T12:35:25.118Z,8.75
2023-04-30T12:37:54.574Z,8.27
2023-04-30T12:40:26.903Z,10.20
2023-04-30T12:43:05.308Z,11.05
2023-04-30T12:45:52.141Z,10.45
2023-04-30T12:48:24.581Z,11.25
2023-04-30T12:50:53.820Z,9.30
2023-04-30T12:53:21.936Z,9.15
2023-04-30T12:56:15.969Z,9.77
2023-04-30T12:58:49.823Z,11.57
2023-04-30T13:01:22.052Z,16.10
2023-04-30T13:03:49.463Z,9.57
2023-04-30T13:06:17.053Z,8.50
2023-04-30T13:08:57.287Z,8.82
2023-04-30T13:11:26.939Z,7.43
2023-04-30T13:13:57.020Z,8.00
2023-04-30T13:16:27.429Z,7.32
2023-04-30T13:18:54.915Z,7.25
2023-04-30T13:21:22.565Z,7.65
2023-04-30T13:23:53.405Z,10.88
2023-04-30T13:26:21.870Z,9.00
2023-04-30T13:28:48.936Z,8.02
2023-04-30T13:31:16.039Z,9.18
2023-04-30T13:33:43.676Z,7.55
2023-04-30T13:36:10.808Z,11.70
2023-04-30T13:38:39.320Z,7.22
2023-04-30T13:41:06.769Z,7.72
2023-04-30T13:43:33.886Z,7.25
2023-04-30T13:46:00.999Z,8.63
2023-04-30T13:48:27.934Z,6.55
2023-04-30T13:50:55.140Z,9.13
2023-04-30T13:53:22.707Z,9.77
2023-04-30T13:55:49.717Z,7.97
2023-04-30T13:58:16.815Z,8.65
2023-04-30T14:00:43.924Z,7.65
2023-04-30T14:03:12.215Z,8.25
2023-04-30T14:05:39.471Z,8.07
2023-04-30T14:08:06.787Z,6.90
2023-04-30T14:10:33.821Z,7.38
2023-04-30T14:13:00.783Z,7.10
2023-04-30T14:15:30.674Z,7.07
2023-04-30T14:17:57.834Z,8.45
2023-04-30T14:20:25.554Z,7.35
2023-04-30T14:22:52.534Z,8.02
2023-04-30T14:25:19.642Z,8.40
2023-04-30T14:27:47.558Z,8.45
2023-04-30T14:30:14.828Z,8.32
2023-04-30T14:32:41.914Z,7.45
2023-04-30T14:35:09.879Z,7.22
2023-04-30T14:37:36.922Z,7.32
2023-04-30T14:40:06.728Z,7.43
2023-04-30T14:42:34.021Z,6.57
2023-04-30T14:45:01.093Z,7.57
2023-04-30T14:47:28.730Z,6.57
2023-04-30T14:49:57.140Z,7.07
2023-04-30T14:52:24.743Z,7.03
2023-04-30T14:54:51.846Z,8.27
2023-04-30T14:57:19.163Z,8.20
2023-04-30T14:59:46.637Z,7.95
2023-04-30T15:02:13.675Z,8.15
2023-04-30T15:04:45.482Z,7.72
2023-04-30T15:09:39.646Z,8.15
2023-04-30T15:12:06.875Z,9.63
2023-04-30T15:14:33.841Z,8.20
2023-04-30T15:17:01.147Z,7.75
2023-04-30T15:19:28.141Z,7.40
2023-04-30T15:21:55.135Z,7.95
2023-04-30T15:24:22.241Z,6.90
2023-04-30T15:26:51.210Z,10.75
2023-04-30T15:29:18.240Z,9.85
2023-04-30T15:31:45.669Z,6.85
2023-04-30T15:34:12.655Z,7.82
2023-04-30T15:36:39.771Z,7.00
2023-04-30T15:39:06.719Z,8.10
2023-04-30T15:41:33.772Z,8.30
2023-04-30T15:44:00.781Z,9.23
2023-04-30T15:46:28.028Z,8.63
2023-04-30T15:48:55.097Z,8.05
2023-04-30T15:51:22.424Z,7.93
2023-04-30T15:53:49.368Z,7.50
2023-04-30T15:56:18.559Z,8.50
2023-04-30T15:58:45.810Z,7.53
2023-04-30T16:01:13.141Z,8.60
2023-04-30T16:03:40.264Z,8.77
2023-04-30T16:06:07.785Z,9.20
2023-04-30T16:08:34.942Z,8.93
2023-04-30T16:11:02.335Z,8.60
2023-04-30T16:13:29.558Z,8.40
2023-04-30T16:15:57.006Z,7.18
2023-04-30T16:18:24.158Z,6.50
2023-04-30T16:20:51.956Z,9.13
2023-04-30T16:23:19.134Z,6.30
2023-04-30T16:25:46.398Z,8.73
2023-04-30T16:28:13.355Z,6.45
2023-04-30T16:30:40.661Z,7.93
2023-04-30T16:33:08.379Z,8.30
2023-04-30T16:35:35.485Z,9.07
2023-04-30T16:38:02.660Z,10.43
2023-04-30T16:40:30.974Z,7.05
2023-04-30T16:42:59.652Z,7.55
2023-04-30T16:45:27.212Z,7.60
2023-04-30T16:47:54.331Z,7.13
2023-04-30T16:50:21.475Z,7.55
2023-04-30T16:52:48.428Z,6.95
2023-04-30T16:55:15.641Z,7.47
2023-04-30T16:57:42.891Z,6.80
2023-04-30T17:00:11.471Z,6.93
2023-04-30T17:02:40.838Z,7.00
2023-04-30T17:05:11.419Z,6.38
2023-04-30T17:07:38.440Z,6.82
2023-04-30T17:10:06.294Z,7.35
2023-04-30T17:12:33.508Z,5.97
2023-04-30T17:15:00.482Z,6.25
2023-04-30T17:17:27.564Z,6.93
2023-04-30T17:19:54.754Z,7.20
2023-04-30T17:22:22.086Z,6.28
2023-04-30T17:24:49.363Z,8.13
2023-04-30T17:27:16.485Z,6.85
2023-04-30T17:29:43.557Z,8.95
2023-04-30T17:32:11.315Z,6.78
2023-04-30T17:34:38.497Z,6.60
2023-04-30T17:37:05.817Z,8.07
2023-04-30T17:39:32.913Z,6.63
2023-04-30T17:42:00.144Z,7.07
2023-04-30T17:44:27.175Z,8.05
2023-04-30T17:46:54.533Z,7.10
2023-04-30T17:49:21.724Z,7.70
2023-04-30T17:51:48.756Z,6.63
2023-04-30T17:54:16.209Z,6.60
2023-04-30T17:56:43.769Z,6.32
2023-04-30T17:59:11.107Z,6.45
2023-04-30T18:01:38.310Z,7.63
2023-04-30T18:04:08.321Z,5.57
2023-04-30T18:06:35.856Z,7.07
2023-04-30T18:09:03.974Z,7.07
2023-04-30T18:11:31.176Z,6.72
2023-04-30T18:13:58.110Z,5.72
2023-04-30T18:16:25.175Z,5.97
2023-04-30T18:18:52.262Z,6.65
2023-04-30T18:21:19.320Z,8.10
2023-04-30T18:23:46.472Z,6.97
2023-04-30T18:26:13.557Z,6.25
2023-04-30T18:28:40.868Z,7.82
2023-04-30T18:31:07.944Z,6.97
2023-04-30T18:33:34.908Z,6.00
2023-04-30T18:36:05.302Z,5.93
2023-04-30T18:38:35.617Z,8.40
2023-04-30T18:41:02.579Z,6.18
2023-04-30T18:43:29.653Z,5.80
2023-04-30T18:45:56.906Z,6.22
2023-04-30T18:48:24.031Z,7.03
2023-04-30T18:50:51.154Z,10.35
2023-04-30T18:53:18.784Z,7.38
2023-04-30T18:55:46.021Z,6.47
2023-04-30T18:58:13.391Z,7.53
2023-04-30T19:00:42.966Z,7.00
2023-04-30T19:03:10.554Z,6.57
2023-04-30T19:05:38.230Z,8.23
2023-04-30T19:08:05.490Z,8.05
2023-04-30T19:10:34.948Z,7.10
2023-04-30T19:13:02.456Z,7.70
2023-04-30T19:15:30.794Z,9.40
2023-04-30T19:17:58.054Z,7.45
2023-04-30T19:20:25.110Z,7.68
2023-04-30T19:22:52.166Z,7.50
2023-04-30T19:25:19.335Z,7.40
2023-04-30T19:27:47.298Z,9.27
2023-04-30T19:30:14.657Z,8.05
2023-04-30T19:32:41.768Z,8.70
2023-04-30T19:35:09.104Z,7.45
2023-04-30T19:37:36.819Z,8.07
2023-04-30T19:40:10.394Z,9.38
2023-04-30T19:42:39.605Z,7.85
2023-04-30T19:45:08.792Z,7.07
2023-04-30T19:47:36.588Z,7.72
2023-04-30T19:50:03.673Z,7.93
2023-04-30T19:52:30.677Z,7.30
2023-04-30T19:54:57.667Z,8.13
2023-04-30T19:57:24.780Z,10.23
2023-04-30T19:59:51.912Z,8.55
2023-04-30T20:02:18.937Z,8.10
2023-04-30T20:04:46.020Z,9.10
2023-04-30T20:07:13.945Z,8.27
2023-04-30T20:09:41.296Z,9.63
2023-04-30T20:12:08.282Z,9.20
2023-04-30T20:14:35.197Z,10.10
2023-04-30T20:17:02.667Z,7.82
2023-04-30T20:19:29.739Z,8.10
2023-04-30T20:21:56.990Z,8.45
2023-04-30T20:24:24.642Z,11.07
2023-04-30T20:26:51.705Z,8.82
2023-04-30T20:29:20.617Z,9.65
2023-04-30T20:31:47.910Z,8.52
2023-04-30T20:34:14.983Z,8.35
2023-04-30T20:36:42.113Z,8.57
2023-04-30T20:39:09.269Z,11.18
2023-04-30T20:41:36.364Z,9.52
2023-04-30T20:44:03.359Z,9.18
2023-04-30T20:46:32.263Z,10.65
2023-04-30T20:49:04.359Z,10.70
2023-04-30T20:51:31.750Z,9.68
2023-04-30T20:53:58.714Z,9.45
2023-04-30T20:56:26.092Z,10.43
2023-04-30T20:58:53.868Z,9.73
2023-04-30T21:01:21.060Z,9.30
2023-04-30T21:03:49.238Z,10.23
2023-04-30T21:06:17.605Z,10.02
2023-04-30T21:08:44.835Z,8.02
2023-04-30T21:11:14.209Z,9.93
2023-04-30T21:13:41.806Z,10.18
2023-04-30T21:16:09.008Z,9.90
2023-04-30T21:18:36.043Z,8.65
2023-04-30T21:21:06.959Z,8.50
2023-04-30T21:23:35.181Z,9.93
2023-04-30T21:26:02.323Z,10.98
2023-04-30T21:28:29.492Z,9.15
2023-04-30T21:30:56.635Z,10.07
2023-04-30T21:33:23.694Z,10.05
2023-04-30T21:35:50.614Z,8.48
2023-04-30T21:38:17.678Z,9.52
2023-04-30T21:40:44.777Z,12.02
2023-04-30T21:43:12.051Z,9.27
2023-04-30T21:45:40.036Z,8.48
2023-04-30T21:48:08.010Z,9.30
2023-04-30T21:50:35.453Z,10.05
2023-04-30T21:53:03.679Z,9.95
2023-04-30T21:55:31.088Z,10.02
2023-04-30T21:57:58.212Z,9.38
2023-04-30T22:00:25.301Z,9.85
2023-04-30T22:02:52.350Z,10.70
2023-04-30T22:05:22.493Z,12.20
2023-04-30T22:07:49.556Z,14.60
2023-04-30T22:10:16.589Z,9.60
2023-04-30T22:12:47.138Z,10.25
2023-04-30T22:15:15.055Z,10.15
2023-04-30T22:17:42.252Z,10.35
2023-04-30T22:20:10.145Z,11.07
2023-04-30T22:22:37.263Z,12.40
2023-04-30T22:25:04.866Z,9.60
2023-04-30T22:27:32.132Z,9.27
2023-04-30T22:29:59.303Z,11.18
2023-04-30T22:32:26.392Z,11.50
2023-04-30T22:34:53.611Z,10.52
2023-04-30T22:37:20.582Z,9.77
2023-04-30T22:39:48.502Z,11.32
2023-04-30T22:42:16.895Z,10.13
2023-04-30T22:44:45.379Z,11.13
2023-04-30T22:47:12.940Z,10.63
2023-04-30T22:49:40.137Z,9.75
2023-04-30T22:52:07.321Z,12.10
2023-04-30T22:54:35.416Z,11.73
2023-04-30T22:57:03.109Z,10.32
2023-04-30T22:59:30.150Z,12.40
2023-04-30T23:01:57.346Z,11.18
2023-04-30T23:04:25.853Z,10.70
2023-04-30T23:06:53.587Z,14.68
2023-04-30T23:09:20.675Z,11.90
2023-04-30T23:11:48.312Z,11.82
2023-04-30T23:14:15.434Z,12.20
2023-04-30T23:16:42.888Z,12.38
2023-04-30T23:19:10.446Z,11.38
2023-04-30T23:21:37.533Z,11.70
2023-04-30T23:24:04.735Z,11.75
2023-04-30T23:26:31.767Z,11.95
2023-04-30T23:28:58.894Z,12.35
2023-04-30T23:31:25.951Z,11.55
2023-04-30T23:33:52.984Z,11.82
2023-04-30T23:36:19.954Z,13.52
2023-04-30T23:38:46.990Z,11.73
2023-04-30T23:41:14.490Z,12.02
2023-04-30T23:43:41.559Z,11.70
2023-04-30T23:46:08.824Z,11.70
2023-04-30T23:48:36.027Z,11.88
2023-04-30T23:51:05.115Z,14.45
2023-04-30T23:53:32.276Z,11.65
2023-04-30T23:56:00.047Z,11.90
2023-04-30T23:58:30.001Z,10.68
